sensor_id;sensor_type;location;lat;lon;timestamp;P1;durP1;ratioP1;P2;durP2;ratioP2
45049;SDS011;61798;48.048;-1.928;2024-01-30T00:01:16;12.38;;;5.07;;
45049;SDS011;61798;48.048;-1.928;2024-01-30T00:03:22;13.57;;;5.75;;
45049;SDS011;61798;48.048;-1.928;2024-01-30T00:05:28;20.38;;;6.68;;
45049;SDS011;61798;48.048;-1.928;2024-01-30T00:07:34;17.35;;;5.53;;
45049;SDS011;61798;48.048;-1.928;2024-01-30T00:09:40;17.92;;;6.95;;
45049;SDS011;61798;48.048;-1.928;2024-01-30T00:11:45;16.42;;;5.55;;
45049;SDS011;61798;48.048;-1.928;2024-01-30T00:13:52;14.88;;;5.45;;
45049;SDS011;61798;48.048;-1.928;2024-01-30T00:15:57;16.13;;;5.32;;
45049;SDS011;61798;48.048;-1.928;2024-01-30T00:18:03;14.63;;;5.35;;
45049;SDS011;61798;48.048;-1.928;2024-01-30T00:20:09;16.30;;;6.20;;
45049;SDS011;61798;48.048;-1.928;2024-01-30T00:22:16;12.90;;;4.90;;
45049;SDS011;61798;48.048;-1.928;2024-01-30T00:24:21;20.00;;;5.45;;
45049;SDS011;61798;48.048;-1.928;2024-01-30T00:26:27;11.00;;;5.15;;
45049;SDS011;61798;48.048;-1.928;2024-01-30T00:28:33;10.57;;;5.05;;
45049;SDS011;61798;48.048;-1.928;2024-01-30T00:30:39;12.20;;;5.28;;
45049;SDS011;61798;48.048;-1.928;2024-01-30T00:32:45;13.15;;;5.13;;
45049;SDS011;61798;48.048;-1.928;2024-01-30T00:34:51;15.50;;;6.55;;
45049;SDS011;61798;48.048;-1.928;2024-01-30T00:36:56;18.33;;;5.28;;
45049;SDS011;61798;48.048;-1.928;2024-01-30T00:39:02;20.95;;;5.18;;
45049;SDS011;61798;48.048;-1.928;2024-01-30T00:41:11;11.90;;;5.03;;
45049;SDS011;61798;48.048;-1.928;2024-01-30T00:43:17;14.32;;;4.97;;
45049;SDS011;61798;48.048;-1.928;2024-01-30T00:45:23;15.57;;;5.22;;
45049;SDS011;61798;48.048;-1.928;2024-01-30T00:47:29;10.80;;;4.90;;
45049;SDS011;61798;48.048;-1.928;2024-01-30T00:49:35;15.20;;;4.82;;
45049;SDS011;61798;48.048;-1.928;2024-01-30T00:51:41;13.07;;;4.88;;
45049;SDS011;61798;48.048;-1.928;2024-01-30T00:53:47;15.88;;;4.78;;
45049;SDS011;61798;48.048;-1.928;2024-01-30T00:55:53;13.73;;;4.43;;
45049;SDS011;61798;48.048;-1.928;2024-01-30T00:57:59;12.70;;;4.32;;
45049;SDS011;61798;48.048;-1.928;2024-01-30T01:00:05;13.88;;;4.28;;
45049;SDS011;61798;48.048;-1.928;2024-01-30T01:02:13;14.82;;;3.97;;
45049;SDS011;61798;48.048;-1.928;2024-01-30T01:04:20;8.02;;;3.60;;
45049;SDS011;61798;48.048;-1.928;2024-01-30T01:06:26;9.63;;;4.10;;
45049;SDS011;61798;48.048;-1.928;2024-01-30T01:08:32;9.82;;;2.90;;
45049;SDS011;61798;48.048;-1.928;2024-01-30T01:10:38;10.25;;;2.30;;
45049;SDS011;61798;48.048;-1.928;2024-01-30T01:12:44;6.05;;;1.95;;
45049;SDS011;61798;48.048;-1.928;2024-01-30T01:14:51;8.38;;;1.95;;
45049;SDS011;61798;48.048;-1.928;2024-01-30T01:16:56;5.07;;;1.40;;
45049;SDS011;61798;48.048;-1.928;2024-01-30T01:19:02;7.45;;;1.98;;
45049;SDS011;61798;48.048;-1.928;2024-01-30T01:21:08;4.85;;;1.55;;
45049;SDS011;61798;48.048;-1.928;2024-01-30T01:23:14;4.70;;;1.45;;
45049;SDS011;61798;48.048;-1.928;2024-01-30T01:25:20;4.85;;;1.27;;
45049;SDS011;61798;48.048;-1.928;2024-01-30T01:27:26;4.53;;;1.05;;
45049;SDS011;61798;48.048;-1.928;2024-01-30T01:29:32;3.08;;;1.05;;
45049;SDS011;61798;48.048;-1.928;2024-01-30T01:31:38;3.50;;;0.85;;
45049;SDS011;61798;48.048;-1.928;2024-01-30T01:33:51;0.70;;;0.63;;
45049;SDS011;61798;48.048;-1.928;2024-01-30T01:35:57;7.72;;;1.35;;
45049;SDS011;61798;48.048;-1.928;2024-01-30T01:38:03;4.25;;;0.93;;
45049;SDS011;61798;48.048;-1.928;2024-01-30T01:40:09;4.85;;;1.10;;
45049;SDS011;61798;48.048;-1.928;2024-01-30T01:42:15;3.33;;;1.33;;
45049;SDS011;61798;48.048;-1.928;2024-01-30T01:44:20;6.90;;;1.40;;
45049;SDS011;61798;48.048;-1.928;2024-01-30T01:46:26;1.88;;;1.20;;
45049;SDS011;61798;48.048;-1.928;2024-01-30T01:48:35;5.00;;;1.38;;
45049;SDS011;61798;48.048;-1.928;2024-01-30T01:50:42;3.05;;;1.30;;
45049;SDS011;61798;48.048;-1.928;2024-01-30T01:52:49;1.92;;;1.10;;
45049;SDS011;61798;48.048;-1.928;2024-01-30T01:54:56;3.25;;;1.48;;
45049;SDS011;61798;48.048;-1.928;2024-01-30T01:57:01;5.78;;;1.35;;
45049;SDS011;61798;48.048;-1.928;2024-01-30T01:59:08;5.97;;;1.27;;
45049;SDS011;61798;48.048;-1.928;2024-01-30T02:01:14;3.97;;;1.60;;
45049;SDS011;61798;48.048;-1.928;2024-01-30T02:03:24;4.65;;;1.40;;
45049;SDS011;61798;48.048;-1.928;2024-01-30T02:05:30;2.85;;;1.05;;
45049;SDS011;61798;48.048;-1.928;2024-01-30T02:07:36;4.40;;;1.13;;
45049;SDS011;61798;48.048;-1.928;2024-01-30T02:09:42;5.18;;;1.20;;
45049;SDS011;61798;48.048;-1.928;2024-01-30T02:11:49;3.53;;;0.90;;
45049;SDS011;61798;48.048;-1.928;2024-01-30T02:13:54;3.78;;;1.30;;
45049;SDS011;61798;48.048;-1.928;2024-01-30T02:16:00;4.32;;;1.13;;
45049;SDS011;61798;48.048;-1.928;2024-01-30T02:18:06;4.60;;;1.13;;
45049;SDS011;61798;48.048;-1.928;2024-01-30T02:20:12;7.93;;;1.02;;
45049;SDS011;61798;48.048;-1.928;2024-01-30T02:22:19;2.90;;;0.80;;
45049;SDS011;61798;48.048;-1.928;2024-01-30T02:24:26;5.60;;;0.88;;
45049;SDS011;61798;48.048;-1.928;2024-01-30T02:26:32;1.48;;;0.82;;
45049;SDS011;61798;48.048;-1.928;2024-01-30T02:28:38;2.55;;;0.90;;
45049;SDS011;61798;48.048;-1.928;2024-01-30T02:30:44;0.93;;;0.50;;
45049;SDS011;61798;48.048;-1.928;2024-01-30T02:32:51;6.95;;;1.20;;
45049;SDS011;61798;48.048;-1.928;2024-01-30T02:34:57;1.48;;;0.70;;
45049;SDS011;61798;48.048;-1.928;2024-01-30T02:37:03;3.17;;;0.70;;
45049;SDS011;61798;48.048;-1.928;2024-01-30T02:39:09;1.48;;;0.50;;
45049;SDS011;61798;48.048;-1.928;2024-01-30T02:41:15;1.83;;;0.60;;
45049;SDS011;61798;48.048;-1.928;2024-01-30T02:43:20;1.63;;;0.60;;
45049;SDS011;61798;48.048;-1.928;2024-01-30T02:45:26;2.03;;;0.70;;
45049;SDS011;61798;48.048;-1.928;2024-01-30T02:47:32;3.25;;;0.50;;
45049;SDS011;61798;48.048;-1.928;2024-01-30T02:49:38;2.15;;;0.65;;
45049;SDS011;61798;48.048;-1.928;2024-01-30T02:51:44;1.05;;;0.75;;
45049;SDS011;61798;48.048;-1.928;2024-01-30T02:53:50;1.38;;;0.50;;
45049;SDS011;61798;48.048;-1.928;2024-01-30T02:55:55;1.63;;;0.80;;
45049;SDS011;61798;48.048;-1.928;2024-01-30T02:58:01;3.60;;;0.63;;
45049;SDS011;61798;48.048;-1.928;2024-01-30T03:00:07;3.38;;;0.70;;
45049;SDS011;61798;48.048;-1.928;2024-01-30T03:02:14;1.27;;;0.80;;
45049;SDS011;61798;48.048;-1.928;2024-01-30T03:04:20;3.70;;;0.57;;
45049;SDS011;61798;48.048;-1.928;2024-01-30T03:06:26;1.00;;;0.40;;
45049;SDS011;61798;48.048;-1.928;2024-01-30T03:08:32;0.95;;;0.50;;
45049;SDS011;61798;48.048;-1.928;2024-01-30T03:10:39;1.05;;;0.68;;
45049;SDS011;61798;48.048;-1.928;2024-01-30T03:12:46;2.03;;;0.50;;
45049;SDS011;61798;48.048;-1.928;2024-01-30T03:14:53;2.65;;;0.50;;
45049;SDS011;61798;48.048;-1.928;2024-01-30T03:17:01;0.80;;;0.50;;
45049;SDS011;61798;48.048;-1.928;2024-01-30T03:19:08;1.20;;;0.32;;
45049;SDS011;61798;48.048;-1.928;2024-01-30T03:21:16;1.67;;;0.65;;
45049;SDS011;61798;48.048;-1.928;2024-01-30T03:23:23;0.65;;;0.40;;
45049;SDS011;61798;48.048;-1.928;2024-01-30T03:25:30;1.52;;;0.75;;
45049;SDS011;61798;48.048;-1.928;2024-01-30T03:27:37;0.47;;;0.40;;
45049;SDS011;61798;48.048;-1.928;2024-01-30T03:29:44;1.02;;;0.57;;
45049;SDS011;61798;48.048;-1.928;2024-01-30T03:31:51;2.55;;;0.60;;
45049;SDS011;61798;48.048;-1.928;2024-01-30T03:34:01;0.65;;;0.50;;
45049;SDS011;61798;48.048;-1.928;2024-01-30T03:36:08;1.27;;;0.50;;
45049;SDS011;61798;48.048;-1.928;2024-01-30T03:38:16;1.63;;;0.32;;
45049;SDS011;61798;48.048;-1.928;2024-01-30T03:40:23;0.85;;;0.43;;
45049;SDS011;61798;48.048;-1.928;2024-01-30T03:42:30;3.13;;;0.50;;
45049;SDS011;61798;48.048;-1.928;2024-01-30T03:44:37;1.30;;;0.60;;
45049;SDS011;61798;48.048;-1.928;2024-01-30T03:46:44;2.10;;;0.68;;
45049;SDS011;61798;48.048;-1.928;2024-01-30T03:48:52;2.80;;;0.57;;
45049;SDS011;61798;48.048;-1.928;2024-01-30T03:50:59;1.05;;;0.47;;
45049;SDS011;61798;48.048;-1.928;2024-01-30T03:53:06;2.33;;;0.70;;
45049;SDS011;61798;48.048;-1.928;2024-01-30T03:55:13;0.40;;;0.40;;
45049;SDS011;61798;48.048;-1.928;2024-01-30T03:57:19;1.13;;;0.50;;
45049;SDS011;61798;48.048;-1.928;2024-01-30T03:59:28;2.22;;;0.68;;
45049;SDS011;61798;48.048;-1.928;2024-01-30T04:01:35;3.10;;;0.60;;
45049;SDS011;61798;48.048;-1.928;2024-01-30T04:03:41;1.55;;;0.70;;
45049;SDS011;61798;48.048;-1.928;2024-01-30T04:05:49;0.63;;;0.60;;
45049;SDS011;61798;48.048;-1.928;2024-01-30T04:07:58;0.65;;;0.60;;
45049;SDS011;61798;48.048;-1.928;2024-01-30T04:10:05;1.77;;;0.60;;
45049;SDS011;61798;48.048;-1.928;2024-01-30T04:12:14;1.02;;;0.63;;
45049;SDS011;61798;48.048;-1.928;2024-01-30T04:14:22;1.48;;;0.63;;
45049;SDS011;61798;48.048;-1.928;2024-01-30T04:16:28;1.42;;;0.73;;
45049;SDS011;61798;48.048;-1.928;2024-01-30T04:18:38;1.73;;;0.77;;
45049;SDS011;61798;48.048;-1.928;2024-01-30T04:20:45;1.70;;;0.93;;
45049;SDS011;61798;48.048;-1.928;2024-01-30T04:22:52;2.45;;;1.08;;
45049;SDS011;61798;48.048;-1.928;2024-01-30T04:24:59;0.55;;;0.55;;
45049;SDS011;61798;48.048;-1.928;2024-01-30T04:27:08;2.42;;;0.70;;
45049;SDS011;61798;48.048;-1.928;2024-01-30T04:29:15;0.55;;;0.55;;
45049;SDS011;61798;48.048;-1.928;2024-01-30T04:31:21;0.60;;;0.60;;
45049;SDS011;61798;48.048;-1.928;2024-01-30T04:33:29;0.77;;;0.60;;
45049;SDS011;61798;48.048;-1.928;2024-01-30T04:35:35;0.50;;;0.50;;
45049;SDS011;61798;48.048;-1.928;2024-01-30T04:37:41;2.45;;;0.68;;
45049;SDS011;61798;48.048;-1.928;2024-01-30T04:39:50;0.60;;;0.60;;
45049;SDS011;61798;48.048;-1.928;2024-01-30T04:41:57;0.50;;;0.50;;
45049;SDS011;61798;48.048;-1.928;2024-01-30T04:44:03;1.08;;;0.70;;
45049;SDS011;61798;48.048;-1.928;2024-01-30T04:46:10;1.05;;;0.73;;
45049;SDS011;61798;48.048;-1.928;2024-01-30T04:48:17;3.13;;;0.70;;
45049;SDS011;61798;48.048;-1.928;2024-01-30T04:50:24;0.90;;;0.60;;
45049;SDS011;61798;48.048;-1.928;2024-01-30T04:52:33;0.50;;;0.50;;
45049;SDS011;61798;48.048;-1.928;2024-01-30T04:54:40;0.50;;;0.50;;
45049;SDS011;61798;48.048;-1.928;2024-01-30T04:56:47;1.13;;;0.52;;
45049;SDS011;61798;48.048;-1.928;2024-01-30T04:58:54;1.23;;;0.43;;
45049;SDS011;61798;48.048;-1.928;2024-01-30T05:01:02;0.40;;;0.40;;
45049;SDS011;61798;48.048;-1.928;2024-01-30T05:03:09;0.50;;;0.50;;
45049;SDS011;61798;48.048;-1.928;2024-01-30T05:05:16;0.40;;;0.40;;
45049;SDS011;61798;48.048;-1.928;2024-01-30T05:07:26;0.30;;;0.30;;
45049;SDS011;61798;48.048;-1.928;2024-01-30T05:09:32;0.40;;;0.40;;
45049;SDS011;61798;48.048;-1.928;2024-01-30T05:11:38;0.50;;;0.40;;
45049;SDS011;61798;48.048;-1.928;2024-01-30T05:13:45;2.42;;;0.50;;
45049;SDS011;61798;48.048;-1.928;2024-01-30T05:15:50;0.35;;;0.35;;
45049;SDS011;61798;48.048;-1.928;2024-01-30T05:17:56;0.85;;;0.40;;
45049;SDS011;61798;48.048;-1.928;2024-01-30T05:20:02;0.30;;;0.30;;
45049;SDS011;61798;48.048;-1.928;2024-01-30T05:22:08;3.17;;;0.40;;
45049;SDS011;61798;48.048;-1.928;2024-01-30T05:24:14;0.60;;;0.50;;
45049;SDS011;61798;48.048;-1.928;2024-01-30T05:26:20;0.50;;;0.30;;
45049;SDS011;61798;48.048;-1.928;2024-01-30T05:28:31;0.40;;;0.40;;
45049;SDS011;61798;48.048;-1.928;2024-01-30T05:30:37;1.77;;;0.60;;
45049;SDS011;61798;48.048;-1.928;2024-01-30T05:32:43;0.63;;;0.55;;
45049;SDS011;61798;48.048;-1.928;2024-01-30T05:34:49;1.13;;;0.45;;
45049;SDS011;61798;48.048;-1.928;2024-01-30T05:36:55;2.10;;;0.40;;
45049;SDS011;61798;48.048;-1.928;2024-01-30T05:39:01;0.47;;;0.40;;
45049;SDS011;61798;48.048;-1.928;2024-01-30T05:41:08;0.35;;;0.32;;
45049;SDS011;61798;48.048;-1.928;2024-01-30T05:43:14;0.95;;;0.45;;
45049;SDS011;61798;48.048;-1.928;2024-01-30T05:45:20;0.40;;;0.40;;
45049;SDS011;61798;48.048;-1.928;2024-01-30T05:47:26;0.90;;;0.50;;
45049;SDS011;61798;48.048;-1.928;2024-01-30T05:49:31;0.85;;;0.40;;
45049;SDS011;61798;48.048;-1.928;2024-01-30T05:51:38;1.00;;;0.47;;
45049;SDS011;61798;48.048;-1.928;2024-01-30T05:53:43;2.20;;;0.43;;
45049;SDS011;61798;48.048;-1.928;2024-01-30T05:55:49;0.70;;;0.50;;
45049;SDS011;61798;48.048;-1.928;2024-01-30T05:57:55;0.85;;;0.55;;
45049;SDS011;61798;48.048;-1.928;2024-01-30T06:00:01;2.70;;;0.50;;
45049;SDS011;61798;48.048;-1.928;2024-01-30T06:02:07;0.60;;;0.50;;
45049;SDS011;61798;48.048;-1.928;2024-01-30T06:04:12;0.52;;;0.50;;
45049;SDS011;61798;48.048;-1.928;2024-01-30T06:06:18;1.13;;;0.50;;
45049;SDS011;61798;48.048;-1.928;2024-01-30T06:08:24;0.95;;;0.52;;
45049;SDS011;61798;48.048;-1.928;2024-01-30T06:10:30;4.95;;;0.52;;
45049;SDS011;61798;48.048;-1.928;2024-01-30T06:12:36;2.00;;;0.47;;
45049;SDS011;61798;48.048;-1.928;2024-01-30T06:14:41;0.73;;;0.50;;
45049;SDS011;61798;48.048;-1.928;2024-01-30T06:16:47;0.68;;;0.50;;
45049;SDS011;61798;48.048;-1.928;2024-01-30T06:18:53;0.75;;;0.47;;
45049;SDS011;61798;48.048;-1.928;2024-01-30T06:20:59;0.50;;;0.50;;
45049;SDS011;61798;48.048;-1.928;2024-01-30T06:23:05;0.50;;;0.50;;
45049;SDS011;61798;48.048;-1.928;2024-01-30T06:25:10;0.65;;;0.65;;
45049;SDS011;61798;48.048;-1.928;2024-01-30T06:27:17;3.03;;;0.60;;
45049;SDS011;61798;48.048;-1.928;2024-01-30T06:29:23;1.00;;;0.60;;
45049;SDS011;61798;48.048;-1.928;2024-01-30T06:31:32;0.88;;;0.60;;
45049;SDS011;61798;48.048;-1.928;2024-01-30T06:33:37;1.45;;;0.70;;
45049;SDS011;61798;48.048;-1.928;2024-01-30T06:35:43;0.50;;;0.50;;
45049;SDS011;61798;48.048;-1.928;2024-01-30T06:37:51;0.60;;;0.50;;
45049;SDS011;61798;48.048;-1.928;2024-01-30T06:39:56;0.32;;;0.32;;
45049;SDS011;61798;48.048;-1.928;2024-01-30T06:42:02;0.68;;;0.50;;
45049;SDS011;61798;48.048;-1.928;2024-01-30T06:44:08;0.40;;;0.40;;
45049;SDS011;61798;48.048;-1.928;2024-01-30T06:46:14;0.85;;;0.40;;
45049;SDS011;61798;48.048;-1.928;2024-01-30T06:48:20;1.52;;;0.63;;
45049;SDS011;61798;48.048;-1.928;2024-01-30T06:50:26;0.30;;;0.30;;
45049;SDS011;61798;48.048;-1.928;2024-01-30T06:52:32;0.68;;;0.50;;
45049;SDS011;61798;48.048;-1.928;2024-01-30T06:54:37;1.02;;;0.57;;
45049;SDS011;61798;48.048;-1.928;2024-01-30T06:56:45;0.95;;;0.40;;
45049;SDS011;61798;48.048;-1.928;2024-01-30T06:58:50;1.30;;;0.40;;
45049;SDS011;61798;48.048;-1.928;2024-01-30T07:00:56;3.55;;;0.60;;
45049;SDS011;61798;48.048;-1.928;2024-01-30T07:03:02;0.45;;;0.45;;
45049;SDS011;61798;48.048;-1.928;2024-01-30T07:05:09;2.40;;;0.88;;
45049;SDS011;61798;48.048;-1.928;2024-01-30T07:07:15;0.57;;;0.43;;
45049;SDS011;61798;48.048;-1.928;2024-01-30T07:09:21;1.30;;;0.52;;
45049;SDS011;61798;48.048;-1.928;2024-01-30T07:11:28;0.90;;;0.75;;
45049;SDS011;61798;48.048;-1.928;2024-01-30T07:13:34;0.98;;;0.70;;
45049;SDS011;61798;48.048;-1.928;2024-01-30T07:15:40;2.80;;;1.00;;
45049;SDS011;61798;48.048;-1.928;2024-01-30T07:17:46;2.47;;;0.98;;
45049;SDS011;61798;48.048;-1.928;2024-01-30T07:19:51;1.10;;;0.82;;
45049;SDS011;61798;48.048;-1.928;2024-01-30T07:21:57;0.68;;;0.68;;
45049;SDS011;61798;48.048;-1.928;2024-01-30T07:24:03;2.20;;;0.80;;
45049;SDS011;61798;48.048;-1.928;2024-01-30T07:26:09;0.93;;;0.70;;
45049;SDS011;61798;48.048;-1.928;2024-01-30T07:28:15;1.40;;;0.70;;
45049;SDS011;61798;48.048;-1.928;2024-01-30T07:30:23;0.70;;;0.57;;
45049;SDS011;61798;48.048;-1.928;2024-01-30T07:32:29;1.30;;;0.75;;
45049;SDS011;61798;48.048;-1.928;2024-01-30T07:34:35;3.00;;;0.73;;
45049;SDS011;61798;48.048;-1.928;2024-01-30T07:36:41;0.57;;;0.57;;
45049;SDS011;61798;48.048;-1.928;2024-01-30T07:38:47;1.02;;;0.65;;
45049;SDS011;61798;48.048;-1.928;2024-01-30T07:40:53;1.58;;;0.63;;
45049;SDS011;61798;48.048;-1.928;2024-01-30T07:42:59;1.38;;;0.88;;
45049;SDS011;61798;48.048;-1.928;2024-01-30T07:45:05;0.95;;;0.57;;
45049;SDS011;61798;48.048;-1.928;2024-01-30T07:47:11;0.75;;;0.57;;
45049;SDS011;61798;48.048;-1.928;2024-01-30T07:49:17;1.40;;;0.80;;
45049;SDS011;61798;48.048;-1.928;2024-01-30T07:51:22;1.10;;;0.93;;
45049;SDS011;61798;48.048;-1.928;2024-01-30T07:53:29;0.60;;;0.60;;
45049;SDS011;61798;48.048;-1.928;2024-01-30T07:55:35;3.22;;;0.70;;
45049;SDS011;61798;48.048;-1.928;2024-01-30T07:57:40;4.03;;;0.80;;
45049;SDS011;61798;48.048;-1.928;2024-01-30T07:59:47;1.00;;;0.60;;
45049;SDS011;61798;48.048;-1.928;2024-01-30T08:02:02;0.63;;;0.63;;
45049;SDS011;61798;48.048;-1.928;2024-01-30T08:04:08;1.77;;;0.80;;
45049;SDS011;61798;48.048;-1.928;2024-01-30T08:06:13;3.47;;;0.52;;
45049;SDS011;61798;48.048;-1.928;2024-01-30T08:08:19;0.82;;;0.60;;
45049;SDS011;61798;48.048;-1.928;2024-01-30T08:10:25;1.30;;;0.68;;
45049;SDS011;61798;48.048;-1.928;2024-01-30T08:12:31;0.80;;;0.60;;
45049;SDS011;61798;48.048;-1.928;2024-01-30T08:14:37;0.90;;;0.60;;
45049;SDS011;61798;48.048;-1.928;2024-01-30T08:16:42;0.93;;;0.80;;
45049;SDS011;61798;48.048;-1.928;2024-01-30T08:18:48;1.25;;;0.80;;
45049;SDS011;61798;48.048;-1.928;2024-01-30T08:20:54;0.73;;;0.60;;
45049;SDS011;61798;48.048;-1.928;2024-01-30T08:23:00;2.25;;;0.90;;
45049;SDS011;61798;48.048;-1.928;2024-01-30T08:25:06;2.67;;;0.73;;
45049;SDS011;61798;48.048;-1.928;2024-01-30T08:27:13;1.02;;;0.88;;
45049;SDS011;61798;48.048;-1.928;2024-01-30T08:29:18;1.15;;;0.70;;
45049;SDS011;61798;48.048;-1.928;2024-01-30T08:31:24;3.20;;;0.73;;
45049;SDS011;61798;48.048;-1.928;2024-01-30T08:33:30;1.08;;;0.70;;
45049;SDS011;61798;48.048;-1.928;2024-01-30T08:35:37;2.20;;;0.80;;
45049;SDS011;61798;48.048;-1.928;2024-01-30T08:37:43;0.90;;;0.60;;
45049;SDS011;61798;48.048;-1.928;2024-01-30T08:39:49;1.10;;;0.65;;
45049;SDS011;61798;48.048;-1.928;2024-01-30T08:41:55;0.93;;;0.70;;
45049;SDS011;61798;48.048;-1.928;2024-01-30T08:44:01;0.70;;;0.65;;
45049;SDS011;61798;48.048;-1.928;2024-01-30T08:46:06;0.73;;;0.70;;
45049;SDS011;61798;48.048;-1.928;2024-01-30T08:48:12;2.33;;;1.10;;
45049;SDS011;61798;48.048;-1.928;2024-01-30T08:50:18;3.40;;;1.10;;
45049;SDS011;61798;48.048;-1.928;2024-01-30T08:52:24;0.90;;;0.70;;
45049;SDS011;61798;48.048;-1.928;2024-01-30T08:54:30;1.63;;;0.98;;
45049;SDS011;61798;48.048;-1.928;2024-01-30T08:56:35;1.00;;;0.80;;
45049;SDS011;61798;48.048;-1.928;2024-01-30T08:58:41;1.67;;;0.75;;
45049;SDS011;61798;48.048;-1.928;2024-01-30T09:00:47;0.80;;;0.80;;
45049;SDS011;61798;48.048;-1.928;2024-01-30T09:02:53;0.82;;;0.60;;
45049;SDS011;61798;48.048;-1.928;2024-01-30T09:04:59;1.20;;;0.70;;
45049;SDS011;61798;48.048;-1.928;2024-01-30T09:07:05;1.75;;;0.88;;
45049;SDS011;61798;48.048;-1.928;2024-01-30T09:09:14;1.20;;;0.80;;
45049;SDS011;61798;48.048;-1.928;2024-01-30T09:11:20;1.67;;;0.80;;
45049;SDS011;61798;48.048;-1.928;2024-01-30T09:13:25;4.10;;;0.80;;
45049;SDS011;61798;48.048;-1.928;2024-01-30T09:15:31;2.13;;;1.02;;
45049;SDS011;61798;48.048;-1.928;2024-01-30T09:17:37;2.88;;;0.98;;
45049;SDS011;61798;48.048;-1.928;2024-01-30T09:19:43;1.45;;;0.80;;
45049;SDS011;61798;48.048;-1.928;2024-01-30T09:21:48;1.30;;;0.70;;
45049;SDS011;61798;48.048;-1.928;2024-01-30T09:23:54;1.55;;;0.75;;
45049;SDS011;61798;48.048;-1.928;2024-01-30T09:26:06;10.20;;;1.20;;
45049;SDS011;61798;48.048;-1.928;2024-01-30T09:28:12;1.55;;;1.00;;
45049;SDS011;61798;48.048;-1.928;2024-01-30T09:30:18;0.73;;;0.68;;
45049;SDS011;61798;48.048;-1.928;2024-01-30T09:32:24;1.38;;;0.82;;
45049;SDS011;61798;48.048;-1.928;2024-01-30T09:34:30;1.77;;;0.90;;
45049;SDS011;61798;48.048;-1.928;2024-01-30T09:36:35;2.05;;;0.90;;
45049;SDS011;61798;48.048;-1.928;2024-01-30T09:38:41;1.00;;;0.88;;
45049;SDS011;61798;48.048;-1.928;2024-01-30T09:40:49;1.25;;;0.80;;
45049;SDS011;61798;48.048;-1.928;2024-01-30T09:43:01;2.13;;;0.80;;
45049;SDS011;61798;48.048;-1.928;2024-01-30T09:45:07;0.90;;;0.70;;
45049;SDS011;61798;48.048;-1.928;2024-01-30T09:47:12;3.05;;;1.20;;
45049;SDS011;61798;48.048;-1.928;2024-01-30T09:49:20;2.38;;;1.23;;
45049;SDS011;61798;48.048;-1.928;2024-01-30T09:51:30;0.90;;;0.75;;
45049;SDS011;61798;48.048;-1.928;2024-01-30T09:53:36;2.25;;;1.10;;
45049;SDS011;61798;48.048;-1.928;2024-01-30T09:55:43;1.10;;;0.90;;
45049;SDS011;61798;48.048;-1.928;2024-01-30T09:57:49;1.20;;;0.93;;
45049;SDS011;61798;48.048;-1.928;2024-01-30T09:59:55;1.05;;;0.75;;
45049;SDS011;61798;48.048;-1.928;2024-01-30T10:02:01;2.67;;;0.93;;
45049;SDS011;61798;48.048;-1.928;2024-01-30T10:04:09;0.80;;;0.65;;
45049;SDS011;61798;48.048;-1.928;2024-01-30T10:06:15;0.93;;;0.65;;
45049;SDS011;61798;48.048;-1.928;2024-01-30T10:08:22;1.00;;;0.82;;
45049;SDS011;61798;48.048;-1.928;2024-01-30T10:10:28;2.35;;;0.68;;
45049;SDS011;61798;48.048;-1.928;2024-01-30T10:12:34;1.15;;;0.80;;
45049;SDS011;61798;48.048;-1.928;2024-01-30T10:14:40;2.33;;;1.00;;
45049;SDS011;61798;48.048;-1.928;2024-01-30T10:16:46;1.35;;;0.80;;
45049;SDS011;61798;48.048;-1.928;2024-01-30T10:18:52;0.73;;;0.70;;
45049;SDS011;61798;48.048;-1.928;2024-01-30T10:20:58;0.93;;;0.70;;
45049;SDS011;61798;48.048;-1.928;2024-01-30T10:23:04;0.93;;;0.63;;
45049;SDS011;61798;48.048;-1.928;2024-01-30T10:25:11;0.80;;;0.60;;
45049;SDS011;61798;48.048;-1.928;2024-01-30T10:27:17;0.70;;;0.50;;
45049;SDS011;61798;48.048;-1.928;2024-01-30T10:29:31;1.60;;;0.82;;
45049;SDS011;61798;48.048;-1.928;2024-01-30T10:31:37;0.60;;;0.60;;
45049;SDS011;61798;48.048;-1.928;2024-01-30T10:33:43;0.52;;;0.50;;
45049;SDS011;61798;48.048;-1.928;2024-01-30T10:35:50;4.18;;;0.68;;
45049;SDS011;61798;48.048;-1.928;2024-01-30T10:37:57;3.55;;;0.80;;
45049;SDS011;61798;48.048;-1.928;2024-01-30T10:40:04;0.98;;;0.60;;
45049;SDS011;61798;48.048;-1.928;2024-01-30T10:42:17;1.30;;;0.60;;
45049;SDS011;61798;48.048;-1.928;2024-01-30T10:44:23;3.08;;;0.70;;
45049;SDS011;61798;48.048;-1.928;2024-01-30T10:46:31;0.68;;;0.68;;
45049;SDS011;61798;48.048;-1.928;2024-01-30T10:48:42;0.60;;;0.60;;
45049;SDS011;61798;48.048;-1.928;2024-01-30T10:50:50;0.85;;;0.68;;
45049;SDS011;61798;48.048;-1.928;2024-01-30T10:52:57;1.20;;;0.50;;
45049;SDS011;61798;48.048;-1.928;2024-01-30T10:55:04;0.95;;;0.70;;
45049;SDS011;61798;48.048;-1.928;2024-01-30T10:57:13;1.00;;;0.85;;
45049;SDS011;61798;48.048;-1.928;2024-01-30T10:59:21;1.35;;;0.80;;
45049;SDS011;61798;48.048;-1.928;2024-01-30T11:01:28;2.22;;;1.08;;
45049;SDS011;61798;48.048;-1.928;2024-01-30T11:03:35;2.63;;;0.80;;
45049;SDS011;61798;48.048;-1.928;2024-01-30T11:05:42;2.35;;;0.88;;
45049;SDS011;61798;48.048;-1.928;2024-01-30T11:07:47;3.17;;;0.90;;
45049;SDS011;61798;48.048;-1.928;2024-01-30T11:09:59;1.45;;;0.80;;
45049;SDS011;61798;48.048;-1.928;2024-01-30T11:12:11;2.40;;;1.30;;
45049;SDS011;61798;48.048;-1.928;2024-01-30T11:14:24;1.27;;;0.93;;
45049;SDS011;61798;48.048;-1.928;2024-01-30T11:16:31;1.55;;;0.95;;
45049;SDS011;61798;48.048;-1.928;2024-01-30T11:18:37;3.20;;;1.17;;
45049;SDS011;61798;48.048;-1.928;2024-01-30T11:20:43;1.83;;;0.90;;
45049;SDS011;61798;48.048;-1.928;2024-01-30T11:22:54;1.10;;;1.00;;
45049;SDS011;61798;48.048;-1.928;2024-01-30T11:25:01;2.17;;;1.30;;
45049;SDS011;61798;48.048;-1.928;2024-01-30T11:27:09;1.27;;;1.08;;
45049;SDS011;61798;48.048;-1.928;2024-01-30T11:29:18;3.33;;;1.17;;
45049;SDS011;61798;48.048;-1.928;2024-01-30T11:31:23;1.88;;;1.02;;
45049;SDS011;61798;48.048;-1.928;2024-01-30T11:33:30;1.67;;;1.08;;
45049;SDS011;61798;48.048;-1.928;2024-01-30T11:35:36;2.45;;;1.08;;
45049;SDS011;61798;48.048;-1.928;2024-01-30T11:37:46;1.67;;;0.98;;
45049;SDS011;61798;48.048;-1.928;2024-01-30T11:39:54;2.03;;;0.88;;
45049;SDS011;61798;48.048;-1.928;2024-01-30T11:42:01;2.50;;;1.17;;
45049;SDS011;61798;48.048;-1.928;2024-01-30T11:44:10;1.77;;;1.30;;
45049;SDS011;61798;48.048;-1.928;2024-01-30T11:46:16;1.77;;;1.00;;
45049;SDS011;61798;48.048;-1.928;2024-01-30T11:48:22;2.75;;;1.50;;
45049;SDS011;61798;48.048;-1.928;2024-01-30T11:50:28;3.50;;;1.38;;
45049;SDS011;61798;48.048;-1.928;2024-01-30T11:52:37;1.88;;;1.20;;
45049;SDS011;61798;48.048;-1.928;2024-01-30T11:54:43;2.75;;;1.60;;
45049;SDS011;61798;48.048;-1.928;2024-01-30T11:56:49;2.97;;;1.42;;
45049;SDS011;61798;48.048;-1.928;2024-01-30T11:58:55;1.88;;;1.20;;
45049;SDS011;61798;48.048;-1.928;2024-01-30T12:01:01;1.85;;;1.17;;
45049;SDS011;61798;48.048;-1.928;2024-01-30T12:03:06;2.28;;;1.13;;
45049;SDS011;61798;48.048;-1.928;2024-01-30T12:05:12;2.42;;;1.20;;
45049;SDS011;61798;48.048;-1.928;2024-01-30T12:07:18;2.88;;;1.50;;
45049;SDS011;61798;48.048;-1.928;2024-01-30T12:09:24;2.85;;;1.15;;
45049;SDS011;61798;48.048;-1.928;2024-01-30T12:11:30;1.65;;;0.95;;
45049;SDS011;61798;48.048;-1.928;2024-01-30T12:13:36;3.35;;;1.40;;
45049;SDS011;61798;48.048;-1.928;2024-01-30T12:15:41;2.15;;;1.15;;
45049;SDS011;61798;48.048;-1.928;2024-01-30T12:17:47;2.35;;;1.50;;
45049;SDS011;61798;48.048;-1.928;2024-01-30T12:20:03;1.73;;;1.30;;
45049;SDS011;61798;48.048;-1.928;2024-01-30T12:22:10;2.33;;;1.05;;
45049;SDS011;61798;48.048;-1.928;2024-01-30T12:24:16;1.65;;;1.10;;
45049;SDS011;61798;48.048;-1.928;2024-01-30T12:26:22;2.95;;;1.38;;
45049;SDS011;61798;48.048;-1.928;2024-01-30T12:28:29;1.52;;;1.23;;
45049;SDS011;61798;48.048;-1.928;2024-01-30T12:30:35;2.35;;;1.27;;